createdAt,value
2022-08-05T00:01:35.957Z,20.54
2022-08-05T00:04:15.086Z,20.51
2022-08-05T00:06:43.239Z,20.52
2022-08-05T00:09:13.190Z,20.51
2022-08-05T00:11:49.177Z,20.51
2022-08-05T00:14:17.336Z,20.46
2022-08-05T00:16:53.312Z,20.45
2022-08-05T00:19:24.970Z,20.40
2022-08-05T00:21:59.827Z,20.36
2022-08-05T00:24:30.630Z,20.33
2022-08-05T00:26:58.586Z,20.23
2022-08-05T00:29:26.056Z,20.23
2022-08-05T00:32:12.340Z,20.21
2022-08-05T00:34:55.130Z,20.19
2022-08-05T00:37:50.649Z,20.20
2022-08-05T00:40:17.749Z,20.16
2022-08-05T00:42:54.871Z,20.05
2022-08-05T00:45:28.210Z,20.00
2022-08-05T00:48:09.531Z,19.92
2022-08-05T00:50:38.547Z,19.88
2022-08-05T00:53:09.565Z,19.82
2022-08-05T00:55:43.761Z,19.78
2022-08-05T00:58:11.656Z,19.74
2022-08-05T01:00:39.857Z,19.72
2022-08-05T01:03:07.848Z,19.73
2022-08-05T01:05:35.181Z,19.76
2022-08-05T01:08:40.761Z,19.75
2022-08-05T01:10:54.054Z,19.69
2022-08-05T01:13:59.081Z,19.68
2022-08-05T01:16:52.175Z,19.67
2022-08-05T01:19:30.127Z,19.64
2022-08-05T01:22:53.920Z,19.60
2022-08-05T01:25:53.132Z,19.54
2022-08-05T01:28:20.176Z,19.54
2022-08-05T01:30:55.099Z,19.53
2022-08-05T01:33:26.252Z,19.53
2022-08-05T01:35:57.633Z,19.54
2022-08-05T01:38:29.273Z,19.54
2022-08-05T01:41:01.665Z,19.53
2022-08-05T01:43:30.326Z,19.49
2022-08-05T01:45:58.483Z,19.41
2022-08-05T01:48:36.745Z,19.44
2022-08-05T01:51:11.980Z,19.40
2022-08-05T01:53:54.734Z,19.34
2022-08-05T01:58:09.879Z,19.32
2022-08-05T01:59:16.977Z,19.26
2022-08-05T02:01:47.683Z,19.21
2022-08-05T02:04:18.575Z,19.20
2022-08-05T02:06:45.343Z,19.14
2022-08-05T02:09:16.417Z,19.17
2022-08-05T02:12:15.239Z,19.17
2022-08-05T02:14:54.610Z,19.08
2022-08-05T02:18:31.017Z,19.05
2022-08-05T02:20:30.558Z,19.02
2022-08-05T02:23:09.241Z,19.01
2022-08-05T02:25:49.839Z,19.04
2022-08-05T02:28:29.348Z,19.00
2022-08-05T02:31:13.858Z,18.97
2022-08-05T02:33:44.954Z,18.99
2022-08-05T02:36:19.131Z,18.95
2022-08-05T02:38:52.903Z,18.90
2022-08-05T02:41:22.779Z,18.85
2022-08-05T02:44:06.539Z,18.82
2022-08-05T02:46:59.752Z,18.73
2022-08-05T02:49:36.640Z,18.75
2022-08-05T02:52:09.330Z,18.73
2022-08-05T02:54:41.147Z,18.69
2022-08-05T02:58:10.936Z,18.71
2022-08-05T02:59:59.726Z,18.66
2022-08-05T03:02:35.604Z,18.63
2022-08-05T03:05:04.439Z,18.65
2022-08-05T03:08:00.344Z,18.68
2022-08-05T03:10:22.102Z,18.66
2022-08-05T03:12:53.796Z,18.61
2022-08-05T03:15:23.694Z,18.54
2022-08-05T03:17:54.101Z,18.51
2022-08-05T03:20:24.550Z,18.53
2022-08-05T03:22:52.495Z,18.44
2022-08-05T03:26:03.816Z,18.44
2022-08-05T03:28:10.716Z,18.44
2022-08-05T03:30:42.249Z,18.44
2022-08-05T03:33:09.473Z,18.42
2022-08-05T03:35:41.530Z,18.44
2022-08-05T03:38:11.541Z,18.42
2022-08-05T03:40:45.084Z,18.43
2022-08-05T03:43:58.634Z,18.40
2022-08-05T03:46:01.581Z,18.40
2022-08-05T03:48:29.614Z,18.40
2022-08-05T03:52:49.028Z,18.36
2022-08-05T03:55:34.603Z,18.30
2022-08-05T03:57:16.473Z,18.31
2022-08-05T03:59:55.773Z,18.38
2022-08-05T04:02:38.439Z,18.38
2022-08-05T04:05:13.001Z,18.44
2022-08-05T04:07:53.039Z,18.45
2022-08-05T04:10:35.801Z,18.48
2022-08-05T04:13:06.482Z,18.51
2022-08-05T04:15:36.096Z,18.54
2022-08-05T04:18:09.326Z,18.61
2022-08-05T04:20:37.275Z,18.68
2022-08-05T04:23:04.423Z,18.71
2022-08-05T04:25:56.456Z,18.81
2022-08-05T04:28:19.767Z,18.89
2022-08-05T04:30:49.336Z,18.95
2022-08-05T04:33:17.085Z,19.00
2022-08-05T04:36:11.128Z,19.04
2022-08-05T04:38:52.656Z,19.11
2022-08-05T04:41:19.347Z,19.18
2022-08-05T04:43:48.195Z,19.26
2022-08-05T04:46:28.129Z,19.40
2022-08-05T04:48:55.344Z,19.43
2022-08-05T04:51:25.584Z,19.54
2022-08-05T04:53:57.095Z,19.62
2022-08-05T04:56:35.129Z,19.70
2022-08-05T04:59:21.437Z,19.77
2022-08-05T05:02:35.503Z,19.89
2022-08-05T05:04:43.911Z,20.12
2022-08-05T05:07:17.118Z,20.29
2022-08-05T05:09:45.328Z,20.39
2022-08-05T05:12:12.231Z,20.48
2022-08-05T05:14:49.520Z,20.58
2022-08-05T05:17:23.283Z,20.72
2022-08-05T05:19:50.430Z,20.83
2022-08-05T05:22:24.646Z,20.98
2022-08-05T05:24:57.164Z,21.12
2022-08-05T05:27:45.950Z,21.27
2022-08-05T05:30:30.519Z,21.42
2022-08-05T05:33:09.015Z,21.58
2022-08-05T05:35:44.108Z,21.74
2022-08-05T05:38:13.242Z,22.01
2022-08-05T05:40:49.943Z,22.10
2022-08-05T05:43:27.711Z,22.29
2022-08-05T05:46:12.223Z,22.54
2022-08-05T05:48:44.267Z,22.73
2022-08-05T05:51:15.246Z,22.92
2022-08-05T05:53:46.084Z,23.18
2022-08-05T05:56:26.013Z,23.41
2022-08-05T05:59:03.403Z,23.69
2022-08-05T06:01:37.675Z,23.99
2022-08-05T06:04:14.547Z,24.28
2022-08-05T06:06:47.254Z,24.57
2022-08-05T06:09:17.452Z,24.87
2022-08-05T06:12:01.958Z,24.95
2022-08-05T06:14:33.414Z,25.15
2022-08-05T06:17:22.314Z,25.25
2022-08-05T06:19:56.882Z,25.51
2022-08-05T06:22:33.730Z,25.77
2022-08-05T06:25:01.561Z,26.05
2022-08-05T06:28:12.791Z,26.24
2022-08-05T06:30:34.907Z,26.53
2022-08-05T06:33:02.319Z,26.65
2022-08-05T06:36:07.576Z,26.51
2022-08-05T06:38:16.159Z,26.54
2022-08-05T06:40:44.512Z,26.85
2022-08-05T06:43:58.092Z,27.15
2022-08-05T06:46:06.945Z,27.62
2022-08-05T06:48:50.194Z,27.88
2022-08-05T06:51:23.763Z,28.31
2022-08-05T06:53:58.336Z,28.49
2022-08-05T06:56:26.760Z,28.93
2022-08-05T06:58:54.415Z,29.47
2022-08-05T07:01:23.365Z,29.76
2022-08-05T07:03:54.468Z,30.40
2022-08-05T07:06:21.284Z,30.97
2022-08-05T07:08:54.983Z,31.54
2022-08-05T07:11:25.379Z,32.11
2022-08-05T07:14:20.299Z,32.57
2022-08-05T07:18:00.457Z,32.43
2022-08-05T07:20:31.286Z,33.22
2022-08-05T07:22:33.696Z,34.39
2022-08-05T07:25:21.872Z,34.92
2022-08-05T07:27:58.558Z,35.65
2022-08-05T07:30:38.865Z,36.24
2022-08-05T07:33:09.234Z,36.57
2022-08-05T07:36:02.711Z,37.43
2022-08-05T07:38:33.491Z,37.78
2022-08-05T07:42:07.354Z,38.48
2022-08-05T07:43:56.570Z,38.59
2022-08-05T07:46:26.046Z,38.79
2022-08-05T07:49:01.516Z,39.14
2022-08-05T07:51:36.169Z,39.44
2022-08-05T07:54:08.401Z,39.83
2022-08-05T07:57:00.691Z,40.38
2022-08-05T07:59:31.358Z,39.84
2022-08-05T08:02:15.929Z,40.72
2022-08-05T08:04:48.187Z,41.07
2022-08-05T08:07:16.425Z,41.34
2022-08-05T08:09:45.741Z,41.98
2022-08-05T08:12:35.083Z,41.28
2022-08-05T08:15:03.345Z,41.81
2022-08-05T08:17:31.607Z,41.67
2022-08-05T08:20:44.495Z,42.22
2022-08-05T08:22:59.085Z,42.01
2022-08-05T08:26:00.520Z,42.11
2022-08-05T08:28:18.830Z,42.58
2022-08-05T08:31:02.831Z,42.49
2022-08-05T08:33:37.456Z,42.74
2022-08-05T08:36:38.670Z,43.87
2022-08-05T08:38:55.612Z,43.89
2022-08-05T08:41:26.298Z,44.25
2022-08-05T08:45:18.519Z,42.61
2022-08-05T08:46:58.192Z,43.58
2022-08-05T08:50:07.691Z,44.91
2022-08-05T08:52:23.799Z,44.45
2022-08-05T08:54:55.410Z,45.49
2022-08-05T08:57:24.966Z,45.66
2022-08-05T09:00:10.025Z,45.93
2022-08-05T09:02:37.382Z,45.41
2022-08-05T09:05:17.267Z,45.33
2022-08-05T09:07:57.527Z,46.05
2022-08-05T09:10:27.911Z,47.17
2022-08-05T09:12:57.238Z,47.09
2022-08-05T09:15:31.660Z,46.59
2022-08-05T09:18:03.699Z,46.55
2022-08-05T09:20:37.274Z,46.20
2022-08-05T09:23:19.666Z,47.22
2022-08-05T09:26:06.499Z,46.94
2022-08-05T09:28:35.062Z,47.90
2022-08-05T09:31:43.286Z,47.04
2022-08-05T09:34:06.312Z,47.60
2022-08-05T09:36:54.430Z,47.60
2022-08-05T09:39:39.551Z,47.98
2022-08-05T09:42:17.237Z,49.15
2022-08-05T09:44:56.093Z,48.94
2022-08-05T09:47:36.400Z,49.15
2022-08-05T09:50:18.234Z,49.03
2022-08-05T09:53:00.962Z,49.27
2022-08-05T09:55:56.288Z,49.07
2022-08-05T09:58:15.631Z,48.52
2022-08-05T10:01:14.601Z,48.46
2022-08-05T10:03:58.893Z,49.25
2022-08-05T10:06:28.237Z,49.59
2022-08-05T10:08:56.268Z,49.51
2022-08-05T10:11:23.666Z,50.46
2022-08-05T10:13:58.097Z,50.05
2022-08-05T10:16:37.890Z,49.10
2022-08-05T10:19:23.560Z,49.06
2022-08-05T10:22:07.840Z,50.29
2022-08-05T10:24:39.714Z,50.51
2022-08-05T10:27:07.585Z,50.28
2022-08-05T10:30:06.496Z,50.73
2022-08-05T10:33:01.801Z,50.73
2022-08-05T10:35:10.738Z,50.56
2022-08-05T10:37:44.907Z,49.52
2022-08-05T10:40:28.134Z,50.29
2022-08-05T10:43:01.456Z,50.87
2022-08-05T10:45:30.525Z,51.01
2022-08-05T10:48:36.220Z,49.88
2022-08-05T10:51:22.519Z,50.78
2022-08-05T10:54:02.075Z,51.20
2022-08-05T10:56:49.500Z,49.19
2022-08-05T11:00:02.766Z,50.14
2022-08-05T11:02:34.660Z,50.07
2022-08-05T11:05:04.470Z,50.36
2022-08-05T11:07:33.117Z,50.41
2022-08-05T11:10:27.377Z,50.82
2022-08-05T11:12:56.013Z,50.82
2022-08-05T11:16:00.408Z,52.16
2022-08-05T11:18:29.939Z,51.67
2022-08-05T11:20:57.192Z,52.53
2022-08-05T11:24:05.537Z,51.77
2022-08-05T11:26:28.627Z,52.08
2022-08-05T11:29:12.538Z,51.50
2022-08-05T11:31:56.486Z,52.37
2022-08-05T11:34:37.921Z,51.67
2022-08-05T11:37:06.218Z,50.89
2022-08-05T11:39:55.560Z,51.49
2022-08-05T11:42:28.279Z,52.65
2022-08-05T11:45:03.535Z,51.86
2022-08-05T11:47:49.253Z,51.28
2022-08-05T11:50:17.874Z,52.28
2022-08-05T11:52:46.173Z,53.08
2022-08-05T11:55:15.694Z,52.26
2022-08-05T11:58:10.760Z,51.65
2022-08-05T12:00:38.020Z,52.65
2022-08-05T12:03:29.630Z,53.56
2022-08-05T12:06:03.157Z,51.87
2022-08-05T12:08:50.979Z,52.71
2022-08-05T12:11:39.906Z,52.81
2022-08-05T12:14:08.585Z,52.96
2022-08-05T12:16:45.530Z,52.47
2022-08-05T12:20:25.581Z,52.47
2022-08-05T12:22:06.064Z,52.99
2022-08-05T12:24:40.510Z,53.23
2022-08-05T12:27:25.432Z,51.59
2022-08-05T12:30:15.399Z,52.20
2022-08-05T12:32:50.429Z,51.98
2022-08-05T12:35:21.573Z,52.26
2022-08-05T12:37:49.311Z,52.13
2022-08-05T12:40:26.863Z,51.36
2022-08-05T12:42:56.697Z,51.06
2022-08-05T12:45:23.608Z,51.66
2022-08-05T12:48:27.155Z,52.23
2022-08-05T12:52:12.472Z,53.34
2022-08-05T12:54:26.537Z,53.59
2022-08-05T12:56:59.360Z,53.19
2022-08-05T12:59:46.736Z,52.56
2022-08-05T13:02:20.068Z,52.09
2022-08-05T13:04:55.204Z,52.66
2022-08-05T13:07:55.783Z,52.34
2022-08-05T13:10:14.922Z,53.66
2022-08-05T13:12:57.460Z,53.70
2022-08-05T13:15:42.203Z,52.73
2022-08-05T13:18:20.112Z,51.94
2022-08-05T13:20:49.376Z,50.56
2022-08-05T13:23:22.162Z,51.82
2022-08-05T13:25:59.386Z,50.57
2022-08-05T13:28:28.812Z,51.74
2022-08-05T13:30:55.566Z,51.55
2022-08-05T13:34:22.502Z,52.23
2022-08-05T13:36:11.342Z,52.63
2022-08-05T13:38:42.749Z,52.49
2022-08-05T13:41:11.514Z,49.77
2022-08-05T13:43:44.822Z,51.12
2022-08-05T13:46:50.597Z,50.65
2022-08-05T13:49:10.253Z,50.77
2022-08-05T13:51:40.818Z,50.50
2022-08-05T13:54:12.442Z,49.60
2022-08-05T13:56:45.317Z,48.44
2022-08-05T13:59:24.767Z,46.50
2022-08-05T14:01:58.116Z,45.27
2022-08-05T14:04:49.803Z,44.42
2022-08-05T14:07:59.845Z,43.57
2022-08-05T14:10:18.835Z,42.36
2022-08-05T14:12:55.185Z,39.77
2022-08-05T14:16:05.573Z,37.02
2022-08-05T14:18:14.833Z,36.33
2022-08-05T14:20:47.324Z,34.99
2022-08-05T14:23:23.387Z,35.15
2022-08-05T14:25:59.059Z,34.72
2022-08-05T14:28:30.075Z,34.53
2022-08-05T14:30:58.118Z,34.34
2022-08-05T14:33:59.350Z,34.22
2022-08-05T14:36:25.346Z,33.89
2022-08-05T14:38:53.899Z,33.56
2022-08-05T14:41:21.243Z,33.33
2022-08-05T14:44:01.929Z,33.40
2022-08-05T14:46:35.516Z,33.28
2022-08-05T14:49:07.277Z,33.21
2022-08-05T14:51:38.883Z,33.17
2022-08-05T14:54:28.503Z,33.04
2022-08-05T14:56:57.531Z,32.94
2022-08-05T14:59:24.825Z,32.86
2022-08-05T15:01:54.902Z,32.82
2022-08-05T15:04:23.358Z,32.71
2022-08-05T15:06:55.549Z,32.63
2022-08-05T15:09:52.045Z,32.60
2022-08-05T15:12:11.660Z,32.59
2022-08-05T15:14:50.264Z,32.58
2022-08-05T15:17:47.373Z,32.51
2022-08-05T15:20:18.687Z,32.49
2022-08-05T15:22:54.258Z,32.53
2022-08-05T15:25:41.000Z,32.53
2022-08-05T15:28:15.810Z,32.57
2022-08-05T15:30:45.492Z,32.50
2022-08-05T15:34:19.099Z,32.37
2022-08-05T15:36:03.462Z,32.21
2022-08-05T15:38:36.156Z,32.24
2022-08-05T15:41:22.082Z,32.19
2022-08-05T15:43:50.712Z,32.11
2022-08-05T15:46:20.182Z,32.03
2022-08-05T15:48:51.980Z,31.93
2022-08-05T15:52:04.107Z,31.83
2022-08-05T15:54:15.955Z,31.79
2022-08-05T15:56:43.673Z,31.71
2022-08-05T15:59:19.825Z,31.70
2022-08-05T16:01:52.499Z,31.59
2022-08-05T16:04:21.250Z,31.50
2022-08-05T16:06:53.813Z,31.42
2022-08-05T16:09:22.388Z,31.35
2022-08-05T16:11:52.747Z,31.32
2022-08-05T16:14:20.162Z,31.32
2022-08-05T16:16:47.227Z,31.27
2022-08-05T16:19:19.003Z,31.25
2022-08-05T16:22:03.380Z,31.23
2022-08-05T16:24:39.801Z,31.21
2022-08-05T16:27:09.066Z,31.10
2022-08-05T16:29:37.062Z,30.87
2022-08-05T16:32:09.769Z,30.71
2022-08-05T16:34:37.297Z,30.69
2022-08-05T16:38:15.524Z,30.60
2022-08-05T16:40:06.627Z,30.53
2022-08-05T16:42:35.121Z,30.45
2022-08-05T16:46:02.857Z,30.37
2022-08-05T16:47:54.285Z,30.31
2022-08-05T16:50:24.167Z,30.29
2022-08-05T16:52:50.896Z,30.26
2022-08-05T16:55:19.721Z,30.21
2022-08-05T16:57:59.752Z,30.13
2022-08-05T17:00:34.713Z,30.06
2022-08-05T17:03:15.375Z,30.00
2022-08-05T17:05:51.793Z,29.93
2022-08-05T17:08:36.057Z,29.90
2022-08-05T17:11:12.533Z,29.81
2022-08-05T17:13:43.946Z,29.68
2022-08-05T17:16:30.087Z,29.66
2022-08-05T17:18:57.363Z,29.56
2022-08-05T17:21:24.091Z,29.49
2022-08-05T17:24:05.862Z,29.44
2022-08-05T17:26:39.309Z,29.32
2022-08-05T17:29:10.201Z,29.20
2022-08-05T17:31:57.201Z,29.09
2022-08-05T17:34:30.100Z,29.02
2022-08-05T17:36:59.598Z,28.98
2022-08-05T17:39:33.175Z,28.93
2022-08-05T17:42:18.521Z,28.82
2022-08-05T17:44:50.312Z,28.75
2022-08-05T17:47:21.965Z,28.67
2022-08-05T17:49:59.800Z,28.58
2022-08-05T17:52:30.007Z,28.52
2022-08-05T17:54:56.734Z,28.49
2022-08-05T17:57:23.411Z,28.41
2022-08-05T18:00:04.793Z,28.37
2022-08-05T18:02:33.375Z,28.87
2022-08-05T18:05:06.379Z,28.58
2022-08-05T18:07:41.293Z,28.44
2022-08-05T18:10:11.450Z,28.34
2022-08-05T18:12:40.755Z,28.22
2022-08-05T18:15:08.696Z,28.15
2022-08-05T18:18:01.459Z,28.07
2022-08-05T18:20:29.513Z,28.00
2022-08-05T18:23:11.288Z,27.89
2022-08-05T18:25:45.182Z,27.84
2022-08-05T18:28:16.144Z,27.76
2022-08-05T18:30:44.643Z,27.69
2022-08-05T18:33:13.626Z,27.66
2022-08-05T18:35:59.952Z,27.64
2022-08-05T18:38:28.946Z,27.65
2022-08-05T18:41:59.235Z,27.64
2022-08-05T18:43:43.220Z,27.61
2022-08-05T18:46:20.125Z,27.69
2022-08-05T18:48:53.650Z,27.74
2022-08-05T18:52:06.505Z,27.82
2022-08-05T18:54:30.173Z,27.82
2022-08-05T18:57:01.805Z,27.77
2022-08-05T18:59:42.694Z,28.03
2022-08-05T19:02:27.778Z,27.72
2022-08-05T19:05:02.965Z,27.40
2022-08-05T19:07:46.563Z,27.35
2022-08-05T19:10:18.718Z,27.32
2022-08-05T19:12:53.471Z,27.26
2022-08-05T19:15:45.065Z,27.25
2022-08-05T19:18:09.199Z,27.20
2022-08-05T19:20:41.585Z,27.21
2022-08-05T19:24:04.170Z,27.19
2022-08-05T19:26:01.163Z,27.12
2022-08-05T19:28:33.663Z,27.03
2022-08-05T19:31:01.108Z,26.99
2022-08-05T19:33:35.923Z,26.96
2022-08-05T19:36:07.289Z,26.91
2022-08-05T19:38:36.395Z,26.88
2022-08-05T19:41:07.080Z,26.83
2022-08-05T19:44:06.823Z,26.83
2022-08-05T19:46:30.244Z,26.82
2022-08-05T19:49:03.256Z,26.78
2022-08-05T19:52:05.522Z,26.73
2022-08-05T19:54:28.471Z,26.65
2022-08-05T19:57:06.638Z,26.57
2022-08-05T19:59:55.028Z,26.50
2022-08-05T20:02:24.263Z,26.41
2022-08-05T20:04:53.772Z,26.37
2022-08-05T20:07:46.188Z,26.35
2022-08-05T20:10:11.734Z,26.31
2022-08-05T20:12:48.111Z,26.20
2022-08-05T20:15:47.983Z,26.14
2022-08-05T20:18:09.626Z,26.00
2022-08-05T20:20:47.055Z,25.94
2022-08-05T20:23:14.188Z,25.85
2022-08-05T20:25:41.827Z,25.80
2022-08-05T20:28:13.576Z,25.76
2022-08-05T20:30:41.738Z,25.69
2022-08-05T20:33:08.834Z,25.68
2022-08-05T20:35:40.678Z,25.71
2022-08-05T20:38:20.268Z,25.64
2022-08-05T20:40:56.301Z,25.51
2022-08-05T20:43:33.329Z,25.36
2022-08-05T20:46:18.214Z,25.30
2022-08-05T20:48:45.488Z,25.28
2022-08-05T20:51:17.947Z,25.26
2022-08-05T20:53:55.149Z,25.18
2022-08-05T20:56:29.867Z,25.12
2022-08-05T20:58:59.972Z,24.99
2022-08-05T21:01:40.791Z,24.89
2022-08-05T21:04:09.904Z,24.85
2022-08-05T21:06:37.911Z,24.81
2022-08-05T21:09:12.150Z,24.76
2022-08-05T21:12:09.615Z,24.71
2022-08-05T21:14:28.809Z,24.72
2022-08-05T21:17:01.398Z,24.71
2022-08-05T21:19:29.782Z,24.67
2022-08-05T21:22:14.924Z,24.60
2022-08-05T21:24:44.512Z,24.49
2022-08-05T21:27:16.259Z,24.31
2022-08-05T21:29:43.351Z,24.14
2022-08-05T21:32:26.739Z,24.21
2022-08-05T21:35:17.746Z,24.21
2022-08-05T21:37:47.050Z,24.18
2022-08-05T21:40:14.449Z,24.16
2022-08-05T21:42:45.179Z,24.22
2022-08-05T21:45:25.071Z,24.25
2022-08-05T21:48:06.269Z,24.24
2022-08-05T21:50:33.473Z,24.27
2022-08-05T21:53:04.428Z,24.26
2022-08-05T21:56:04.220Z,24.23
2022-08-05T21:58:24.867Z,24.21
2022-08-05T22:00:58.723Z,24.10
2022-08-05T22:03:51.773Z,24.00
2022-08-05T22:06:12.207Z,23.97
2022-08-05T22:08:42.378Z,23.94
2022-08-05T22:11:15.386Z,23.89
2022-08-05T22:14:31.257Z,23.89
2022-08-05T22:16:51.314Z,23.90
2022-08-05T22:19:56.087Z,23.92
2022-08-05T22:22:03.688Z,23.91
2022-08-05T22:24:51.708Z,23.87
2022-08-05T22:28:08.470Z,23.84
2022-08-05T22:30:24.509Z,23.81
2022-08-05T22:32:51.159Z,23.81
2022-08-05T22:35:22.390Z,23.79
2022-08-05T22:37:58.672Z,23.72
2022-08-05T22:40:27.122Z,23.60
2022-08-05T22:42:57.901Z,23.59
2022-08-05T22:45:26.527Z,23.56
2022-08-05T22:47:57.224Z,23.54
2022-08-05T22:50:26.718Z,23.53
2022-08-05T22:52:55.429Z,23.52
2022-08-05T22:55:23.640Z,23.53
2022-08-05T22:57:51.767Z,23.48
2022-08-05T23:00:20.602Z,23.47
2022-08-05T23:02:48.602Z,23.49
2022-08-05T23:05:15.871Z,23.45
2022-08-05T23:07:48.550Z,23.41
2022-08-05T23:10:20.298Z,23.41
2022-08-05T23:12:51.548Z,23.35
2022-08-05T23:15:22.594Z,23.30
2022-08-05T23:18:01.700Z,23.25
2022-08-05T23:20:30.765Z,23.20
2022-08-05T23:22:58.750Z,23.21
2022-08-05T23:25:51.328Z,23.15
2022-08-05T23:28:12.999Z,23.17
2022-08-05T23:30:43.563Z,23.12
2022-08-05T23:33:22.026Z,23.18
2022-08-05T23:35:56.150Z,23.15
2022-08-05T23:38:26.057Z,23.13
2022-08-05T23:40:53.838Z,23.07
2022-08-05T23:43:25.731Z,23.05
2022-08-05T23:46:17.618Z,23.03
2022-08-05T23:49:00.235Z,23.02
2022-08-05T23:51:53.733Z,22.99
2022-08-05T23:54:33.989Z,22.94
2022-08-05T23:57:05.146Z,22.89
